Time;durP1;ratioP1;P1;durP2;ratioP2;P2;SDS_P1;SDS_P2;PMS_P1;PMS_P2;Temp;Humidity;BMP_temperature;BMP_pressure;BME280_temperature;BME280_humidity;BME280_pressure;Samples;Min_cycle;Max_cycle;Signal;HPM_P1;HPM_P2
2022/05/25 00:00:58;;;;;;;;;;;;;;;25.06;57.26;98201.28;2065804;28;20419;-47
2022/05/25 00:02:00;;;;;;;;;;;;;;;25.06;57.14;98192.34;2065220;28;20048;-47
2022/05/25 00:03:01;;;;;;;;;;;;;;;25.07;57.27;98200.19;2067310;28;19978;-50
2022/05/25 00:04:02;;;;;;;;;;;;;;;25.05;57.24;98196.94;2066392;28;20388;-48
2022/05/25 00:05:04;;;;;;;;;;;;;;;25.04;57.29;98191.75;2062476;28;19934;-47
2022/05/25 00:06:07;;;;;;;;;;;;;;;25.04;57.50;98195.28;2070730;28;20043;-48
2022/05/25 00:07:08;;;;;;;;;;;;;;;25.03;57.29;98199.09;2064643;28;19937;-47
2022/05/25 00:08:11;;;;;;;;;;;;;;;25.03;57.37;98196.38;2068871;28;19961;-49
2022/05/25 00:09:12;;;;;;;;;;;;;;;25.04;57.34;98192.56;2064035;28;19933;-47
2022/05/25 00:10:14;;;;;;;;;;;;;;;25.04;57.11;98191.75;2066354;28;19933;-48
2022/05/25 00:11:16;;;;;;;;;;;;;;;25.02;57.23;98197.47;2067076;28;19937;-48
2022/05/25 00:12:17;;;;;;;;;;;;;;;25.03;57.58;98201.81;2066653;28;20805;-47
2022/05/25 00:13:18;;;;;;;;;;;;;;;25.04;57.37;98199.91;2068033;28;19933;-49
2022/05/25 00:14:20;;;;;;;;;;;;;;;25.04;57.25;98199.91;2070786;28;19926;-47
2022/05/25 00:15:21;;;;;;;;;;;;;;;25.02;57.40;98202.88;2066865;28;20640;-47
2022/05/25 00:16:22;;;;;;;;;;;;;;;25.02;57.58;98202.88;2068735;28;19968;-49
2022/05/25 00:17:23;;;;;;;;;;;;;;;25.01;57.42;98203.94;2067930;28;19969;-50
2022/05/25 00:18:24;;;;;;;;;;;;;;;25.00;57.28;98202.31;2066827;28;19929;-47
2022/05/25 00:20:45;;;;;;;;;;;;;;;25.01;57.28;98203.13;2066340;28;20814;-48
2022/05/25 00:21:46;;;;;;;;;;;;;;;25.01;57.43;98198.53;2064082;28;19933;-49
2022/05/25 00:22:49;;;;;;;;;;;;;;;25.02;57.34;98200.19;2069390;28;20371;-47
2022/05/25 00:23:50;;;;;;;;;;;;;;;25.03;57.20;98207.22;2068440;28;20295;-51
2022/05/25 00:24:51;;;;;;;;;;;;;;;25.02;57.51;98204.75;2069534;28;20011;-48
2022/05/25 00:25:53;;;;;;;;;;;;;;;25.01;57.25;98200.41;2064646;28;19926;-51
2022/05/25 00:26:55;;;;;;;;;;;;;;;25.02;57.61;98199.34;2071181;28;19930;-47
2022/05/25 00:27:56;;;;;;;;;;;;;;;25.00;57.45;98198.78;2066288;28;19925;-48
2022/05/25 00:28:57;;;;;;;;;;;;;;;25.01;57.21;98201.22;2070690;28;20004;-49
2022/05/25 00:29:59;;;;;;;;;;;;;;;25.01;57.59;98203.94;2064915;28;19929;-51
2022/05/25 00:30:59;;;;;;;;;;;;;;;25.02;57.59;98210.19;2071666;28;19926;-48
2022/05/25 00:32:01;;;;;;;;;;;;;;;25.00;57.53;98201.50;2069499;28;20398;-47
2022/05/25 00:33:02;;;;;;;;;;;;;;;25.01;57.24;98200.41;2070162;28;20359;-48
2022/05/25 00:34:03;;;;;;;;;;;;;;;25.00;57.52;98199.59;2068104;28;20544;-47
2022/05/25 00:35:06;;;;;;;;;;;;;;;25.00;57.67;98196.91;2067414;28;19933;-47
2022/05/25 00:36:07;;;;;;;;;;;;;;;25.01;57.73;98200.41;2070096;28;20469;-47
2022/05/25 00:37:08;;;;;;;;;;;;;;;25.00;57.36;98202.31;2070755;28;20355;-48
2022/05/25 00:38:10;;;;;;;;;;;;;;;24.99;57.39;98200.69;2067285;28;19936;-47
2022/05/25 00:39:10;;;;;;;;;;;;;;;25.00;57.71;98207.75;2071919;28;19933;-48
2022/05/25 00:40:14;;;;;;;;;;;;;;;25.00;57.92;98199.59;2067393;28;20024;-50
2022/05/25 00:41:15;;;;;;;;;;;;;;;25.02;57.47;98204.75;2067551;28;19932;-47
2022/05/25 00:42:18;;;;;;;;;;;;;;;25.03;57.57;98198.28;2070658;28;20025;-51
2022/05/25 00:43:18;;;;;;;;;;;;;;;25.01;57.55;98197.72;2068884;28;19930;-48
2022/05/25 00:44:20;;;;;;;;;;;;;;;25.02;57.69;98199.34;2068821;28;19932;-47
2022/05/25 00:45:20;;;;;;;;;;;;;;;25.01;57.52;98203.13;2067943;28;19933;-50
2022/05/25 00:46:24;;;;;;;;;;;;;;;25.01;57.74;98197.72;2068542;28;19976;-48
2022/05/25 00:47:26;;;;;;;;;;;;;;;24.99;57.88;98200.69;2065796;28;19968;-48
2022/05/25 00:48:30;;;;;;;;;;;;;;;24.98;57.79;98199.84;2066474;28;20438;-51
2022/05/25 00:49:33;;;;;;;;;;;;;;;24.98;57.77;98199.03;2071040;28;20028;-51
2022/05/25 00:51:53;;;;;;;;;;;;;;;24.96;57.90;98193.88;2066782;28;19929;-49
2022/05/25 00:52:53;;;;;;;;;;;;;;;24.96;57.83;98195.75;2069813;28;19932;-50
2022/05/25 00:53:58;;;;;;;;;;;;;;;24.96;57.78;98198.47;2070463;28;19926;-47
2022/05/25 00:55:00;;;;;;;;;;;;;;;24.97;57.94;98194.69;2069298;28;19933;-50
2022/05/25 00:56:02;;;;;;;;;;;;;;;24.97;57.86;98189.28;2067511;28;19975;-48
2022/05/25 00:57:05;;;;;;;;;;;;;;;24.96;57.32;98188.47;2062690;28;20139;-49
2022/05/25 00:58:08;;;;;;;;;;;;;;;24.94;57.44;98193.31;2063525;28;19925;-48
2022/05/25 00:59:11;;;;;;;;;;;;;;;24.96;57.70;98195.75;2065127;28;19926;-48
2022/05/25 01:00:14;;;;;;;;;;;;;;;24.95;57.85;98194.94;2069163;28;19929;-48
2022/05/25 01:01:14;;;;;;;;;;;;;;;24.96;57.82;98191.16;2067526;28;19936;-48
2022/05/25 01:02:16;;;;;;;;;;;;;;;24.97;57.70;98191.97;2069595;28;21601;-51
2022/05/25 01:03:19;;;;;;;;;;;;;;;24.98;57.86;98188.19;2067089;28;20496;-47
2022/05/25 01:04:21;;;;;;;;;;;;;;;24.98;57.84;98197.13;2069723;28;19930;-47
2022/05/25 01:05:25;;;;;;;;;;;;;;;24.98;57.47;98193.59;2069002;28;19930;-47
2022/05/25 01:06:34;;;;;;;;;;;;;;;24.97;57.73;98194.69;2071209;28;19948;-47
2022/05/25 01:07:44;;;;;;;;;;;;;;;24.97;57.54;98197.41;2069249;28;19973;-47
2022/05/25 01:08:53;;;;;;;;;;;;;;;24.96;57.65;98196.59;2068935;28;19976;-47
2022/05/25 01:10:02;;;;;;;;;;;;;;;24.97;57.69;98198.22;2065927;28;19936;-47
2022/05/25 01:11:13;;;;;;;;;;;;;;;24.96;57.42;98188.47;2072997;28;21276;-49
2022/05/25 01:12:20;;;;;;;;;;;;;;;24.95;57.63;98194.94;2071522;28;19960;-48
2022/05/25 01:13:28;;;;;;;;;;;;;;;24.96;57.64;98190.31;2067302;28;19929;-52
2022/05/25 01:14:38;;;;;;;;;;;;;;;24.95;57.64;98192.22;2072759;28;19980;-47
2022/05/25 01:15:47;;;;;;;;;;;;;;;24.96;57.69;98191.16;2071535;28;20022;-47
2022/05/25 01:18:48;;;;;;;;;;;;;;;24.96;57.65;98193.03;2065585;28;19922;-50
2022/05/25 01:20:02;;;;;;;;;;;;;;;24.95;57.66;98196.84;2067475;28;19940;-49
2022/05/25 01:21:06;;;;;;;;;;;;;;;24.95;58.17;98194.94;2070816;28;20387;-49
2022/05/25 01:22:16;;;;;;;;;;;;;;;24.94;57.84;98192.50;2068208;28;19925;-53
2022/05/25 01:23:48;;;;;;;;;;;;;;;24.95;57.65;98194.13;2069777;28;19932;-50
2022/05/25 01:24:55;;;;;;;;;;;;;;;24.93;57.96;98202.53;2070455;28;19941;-50
2022/05/25 01:26:18;;;;;;;;;;;;;;;24.94;57.89;98196.03;2068451;28;20591;-46
2022/05/25 01:27:27;;;;;;;;;;;;;;;24.95;57.70;98202.25;2028463;28;20017;-54
2022/05/25 01:28:35;;;;;;;;;;;;;;;24.95;57.93;98194.13;2068196;28;19929;-51
2022/05/25 01:29:55;;;;;;;;;;;;;;;24.96;57.62;98206.59;2066317;28;19968;-50
2022/05/25 01:30:56;;;;;;;;;;;;;;;24.95;57.91;98202.25;2070448;28;19929;-47
2022/05/25 01:32:00;;;;;;;;;;;;;;;24.95;57.59;98200.38;2070927;28;19924;-50
2022/05/25 01:33:09;;;;;;;;;;;;;;;24.95;58.02;98203.06;2068519;28;20588;-49
2022/05/25 01:34:14;;;;;;;;;;;;;;;24.96;57.95;98195.75;2068461;28;20404;-49
2022/05/25 01:35:21;;;;;;;;;;;;;;;24.95;57.63;98205.78;2066453;28;20558;-46
2022/05/25 01:36:26;;;;;;;;;;;;;;;24.92;57.84;98200.88;2069257;28;19976;-46
2022/05/25 01:37:35;;;;;;;;;;;;;;;24.92;58.11;98200.88;2067369;28;19925;-47
2022/05/25 01:38:41;;;;;;;;;;;;;;;24.92;57.82;98197.34;2069675;28;19925;-52
2022/05/25 01:39:47;;;;;;;;;;;;;;;24.92;58.07;98194.63;2071899;28;20311;-52
2022/05/25 01:40:51;;;;;;;;;;;;;;;24.91;58.24;98191.13;2068160;28;20412;-52
2022/05/25 01:41:54;;;;;;;;;;;;;;;24.93;58.06;98188.13;2068197;28;20351;-49
2022/05/25 01:42:58;;;;;;;;;;;;;;;24.91;58.15;98187.59;2066341;28;20443;-49
2022/05/25 01:44:02;;;;;;;;;;;;;;;24.92;58.10;98189.22;2070425;28;19940;-49
2022/05/25 01:45:07;;;;;;;;;;;;;;;24.91;58.01;98184.88;2068722;28;19930;-49
2022/05/25 01:46:13;;;;;;;;;;;;;;;24.91;57.91;98182.16;2068123;28;19948;-49
2022/05/25 01:47:14;;;;;;;;;;;;;;;24.92;57.97;98189.22;2069785;28;19929;-49
2022/05/25 01:48:17;;;;;;;;;;;;;;;24.92;57.98;98181.06;2066469;28;19976;-50
2022/05/25 01:49:19;;;;;;;;;;;;;;;24.90;58.07;98181.31;2068444;28;19929;-53
2022/05/25 01:50:23;;;;;;;;;;;;;;;24.93;58.24;98188.13;2069060;28;19941;-46
2022/05/25 01:51:27;;;;;;;;;;;;;;;24.92;58.02;98183.78;2066244;28;19964;-50
2022/05/25 01:52:31;;;;;;;;;;;;;;;24.89;57.84;98189.72;2065917;28;20402;-50
2022/05/25 01:53:36;;;;;;;;;;;;;;;24.90;57.78;98186.75;2066648;28;20857;-50
2022/05/25 01:54:38;;;;;;;;;;;;;;;24.90;58.00;98181.31;2068736;28;20407;-52
2022/05/25 01:55:42;;;;;;;;;;;;;;;24.92;57.86;98183.78;2066519;28;19976;-49
2022/05/25 01:56:45;;;;;;;;;;;;;;;24.91;57.97;98176.72;2070686;28;19932;-51
2022/05/25 01:57:49;;;;;;;;;;;;;;;24.93;57.95;98180.84;2067687;28;20328;-51
2022/05/25 01:58:53;;;;;;;;;;;;;;;24.91;57.94;98180.25;2065998;28;19964;-49
2022/05/25 01:59:54;;;;;;;;;;;;;;;24.92;57.98;98175.66;2067754;28;19929;-50
2022/05/25 02:00:57;;;;;;;;;;;;;;;24.93;57.81;98169.13;2071123;28;19926;-52
2022/05/25 02:04:36;;;;;;;;;;;;;;;24.92;57.84;98170.22;2069494;28;19929;-49
2022/05/25 02:05:42;;;;;;;;;;;;;;;24.91;57.82;98169.41;2070155;28;19967;-49
2022/05/25 02:06:59;;;;;;;;;;;;;;;24.90;58.03;98169.66;2067952;28;19937;-47
2022/05/25 02:08:09;;;;;;;;;;;;;;;24.89;57.89;98168.03;2068152;28;20413;-47
2022/05/25 02:09:19;;;;;;;;;;;;;;;24.91;58.06;98174.03;2067610;28;19941;-47
2022/05/25 02:10:25;;;;;;;;;;;;;;;24.91;58.14;98168.59;2068364;28;19926;-47
2022/05/25 02:11:31;;;;;;;;;;;;;;;24.93;57.92;98166.41;2069354;28;19940;-48
2022/05/25 02:12:41;;;;;;;;;;;;;;;24.91;57.77;98169.41;2068797;28;20583;-48
2022/05/25 02:13:51;;;;;;;;;;;;;;;24.94;57.80;98165.38;2071094;28;19969;-46
2022/05/25 02:14:56;;;;;;;;;;;;;;;24.92;57.86;98167.50;2067489;28;19933;-47
2022/05/25 02:16:13;;;;;;;;;;;;;;;24.89;58.10;98163.41;2067130;28;19933;-47
2022/05/25 02:17:20;;;;;;;;;;;;;;;24.90;58.19;98164.22;2069993;28;20408;-48
2022/05/25 02:18:28;;;;;;;;;;;;;;;24.87;58.26;98160.13;2066814;28;19933;-47
2022/05/25 02:19:34;;;;;;;;;;;;;;;24.88;58.02;98159.06;2067232;28;19973;-50
2022/05/25 02:20:40;;;;;;;;;;;;;;;24.86;57.97;98158.50;2065794;28;20917;-47
2022/05/25 02:21:43;;;;;;;;;;;;;;;24.88;57.93;98160.97;2070675;28;19968;-49
2022/05/25 02:22:45;;;;;;;;;;;;;;;24.89;57.92;98162.59;2069789;28;19934;-47
2022/05/25 02:23:49;;;;;;;;;;;;;;;24.86;58.03;98155.78;2068908;28;20513;-47
2022/05/25 02:24:52;;;;;;;;;;;;;;;24.88;58.05;98160.97;2069358;28;19991;-46
2022/05/25 02:25:56;;;;;;;;;;;;;;;24.89;58.13;98157.19;2072535;28;19983;-47
2022/05/25 02:27:02;;;;;;;;;;;;;;;24.90;57.85;98158.81;2069769;28;19933;-48
2022/05/25 02:28:05;;;;;;;;;;;;;;;24.92;57.91;98162.09;2068138;28;20511;-49
2022/05/25 02:29:09;;;;;;;;;;;;;;;24.89;58.03;98155.28;2066465;28;20449;-48
2022/05/25 02:30:13;;;;;;;;;;;;;;;24.89;57.83;98154.47;2066808;28;20437;-48
2022/05/25 02:31:19;;;;;;;;;;;;;;;24.89;58.02;98152.56;2067809;28;19976;-47
2022/05/25 02:32:24;;;;;;;;;;;;;;;24.88;57.90;98155.53;2066637;28;19934;-49
2022/05/25 02:33:27;;;;;;;;;;;;;;;24.87;58.25;98160.13;2069009;28;19929;-47
2022/05/25 02:34:28;;;;;;;;;;;;;;;24.88;58.25;98161.78;2067840;28;19968;-48
2022/05/25 02:35:30;;;;;;;;;;;;;;;24.87;57.98;98160.13;2067138;28;20387;-47
2022/05/25 02:36:32;;;;;;;;;;;;;;;24.90;58.14;98164.22;2070797;28;20830;-47
2022/05/25 02:37:35;;;;;;;;;;;;;;;24.90;57.96;98164.22;2068469;28;19952;-48
2022/05/25 02:38:37;;;;;;;;;;;;;;;24.89;58.15;98159.88;2066075;28;19936;-49
2022/05/25 02:39:39;;;;;;;;;;;;;;;24.86;58.09;98163.13;2068713;28;19967;-51
2022/05/25 02:40:40;;;;;;;;;;;;;;;24.83;58.23;98163.63;2067989;28;19925;-49
2022/05/25 02:41:44;;;;;;;;;;;;;;;24.84;58.17;98160.66;2067888;28;20335;-47
2022/05/25 02:42:44;;;;;;;;;;;;;;;24.86;57.92;98163.13;2068550;28;19929;-47
2022/05/25 02:43:46;;;;;;;;;;;;;;;24.84;58.04;98160.66;2068652;28;20371;-47
2022/05/25 02:44:46;;;;;;;;;;;;;;;24.84;58.24;98159.84;2070514;28;19957;-50
2022/05/25 02:45:48;;;;;;;;;;;;;;;24.84;57.91;98162.53;2065405;28;20299;-47
2022/05/25 02:46:51;;;;;;;;;;;;;;;24.86;58.13;98163.13;2068825;28;20123;-47
2022/05/25 02:47:52;;;;;;;;;;;;;;;24.87;58.06;98164.75;2064708;28;19936;-47
2022/05/25 02:48:53;;;;;;;;;;;;;;;24.84;58.08;98160.66;2068469;28;19971;-47
2022/05/25 02:49:54;;;;;;;;;;;;;;;24.85;57.94;98153.31;2065815;28;19929;-48
2022/05/25 02:50:56;;;;;;;;;;;;;;;24.85;57.97;98154.16;2067470;28;19932;-47
2022/05/25 02:51:57;;;;;;;;;;;;;;;24.86;57.87;98158.50;2066683;28;20508;-48
2022/05/25 02:52:58;;;;;;;;;;;;;;;24.86;58.09;98163.13;2067137;28;19933;-47
2022/05/25 02:53:59;;;;;;;;;;;;;;;24.84;58.24;98167.97;2069275;28;20008;-47
2022/05/25 02:55:00;;;;;;;;;;;;;;;24.85;57.97;98166.88;2070191;28;19944;-48
2022/05/25 02:56:01;;;;;;;;;;;;;;;24.85;58.02;98166.88;2066996;28;19934;-47
2022/05/25 02:57:03;;;;;;;;;;;;;;;24.85;58.02;98167.72;2068254;28;20611;-47
2022/05/25 02:58:05;;;;;;;;;;;;;;;24.86;58.18;98165.81;2067748;28;19960;-47
2022/05/25 02:59:05;;;;;;;;;;;;;;;24.85;57.97;98162.31;2066057;28;20534;-47
2022/05/25 03:00:08;;;;;;;;;;;;;;;24.81;58.26;98152.22;2072192;28;19932;-47
2022/05/25 03:01:10;;;;;;;;;;;;;;;24.80;58.27;98154.09;2068711;28;20256;-48
2022/05/25 03:02:11;;;;;;;;;;;;;;;24.82;58.31;98156.53;2068177;28;19937;-48
2022/05/25 03:03:13;;;;;;;;;;;;;;;24.81;58.06;98149.50;2072766;28;19925;-47
2022/05/25 03:04:13;;;;;;;;;;;;;;;24.81;58.17;98160.34;2071596;28;19929;-48
2022/05/25 03:05:15;;;;;;;;;;;;;;;24.81;58.11;98160.34;2069896;28;20059;-48
2022/05/25 03:06:16;;;;;;;;;;;;;;;24.79;58.41;98159.78;2071837;28;19980;-47
2022/05/25 03:07:18;;;;;;;;;;;;;;;24.79;58.06;98155.16;2074233;28;19932;-47
2022/05/25 03:08:18;;;;;;;;;;;;;;;24.81;58.18;98155.72;2069266;28;19926;-48
2022/05/25 03:09:20;;;;;;;;;;;;;;;24.82;58.10;98151.13;2065926;28;19934;-48
2022/05/25 03:10:20;;;;;;;;;;;;;;;24.83;58.24;98148.16;2064729;28;19929;-47
2022/05/25 03:11:22;;;;;;;;;;;;;;;24.84;58.09;98148.97;2066620;28;19933;-49
2022/05/25 03:12:22;;;;;;;;;;;;;;;24.84;58.06;98154.41;2068233;28;19929;-47
2022/05/25 03:13:24;;;;;;;;;;;;;;;24.84;58.00;98154.41;2067515;28;19967;-50
2022/05/25 03:14:25;;;;;;;;;;;;;;;24.83;58.24;98152.78;2066534;28;19926;-47
2022/05/25 03:15:26;;;;;;;;;;;;;;;24.84;57.92;98154.41;2068864;28;19929;-48
2022/05/25 03:16:27;;;;;;;;;;;;;;;24.84;57.87;98160.66;2072965;28;19932;-47
2022/05/25 03:17:30;;;;;;;;;;;;;;;24.82;58.03;98153.84;2069105;28;19936;-48
2022/05/25 03:18:30;;;;;;;;;;;;;;;24.82;58.22;98153.84;2066831;28;19925;-47
2022/05/25 03:19:32;;;;;;;;;;;;;;;24.83;58.14;98158.19;2067796;28;20045;-49
2022/05/25 03:20:32;;;;;;;;;;;;;;;24.82;57.94;98160.06;2070333;28;20287;-47
2022/05/25 03:21:34;;;;;;;;;;;;;;;24.80;58.26;98158.72;2066708;28;19935;-47
2022/05/25 03:22:37;;;;;;;;;;;;;;;24.80;58.15;98158.72;2066476;28;19933;-47
2022/05/25 03:23:39;;;;;;;;;;;;;;;24.79;58.33;98163.31;2066589;28;19960;-50
2022/05/25 03:24:40;;;;;;;;;;;;;;;24.80;58.21;98164.16;2067097;28;20617;-48
2022/05/25 03:25:41;;;;;;;;;;;;;;;24.80;58.22;98159.53;2067943;28;19933;-50
2022/05/25 03:26:42;;;;;;;;;;;;;;;24.79;58.18;98157.06;2065954;28;19929;-47
2022/05/25 03:27:44;;;;;;;;;;;;;;;24.80;58.09;98161.44;2066742;28;19932;-47
2022/05/25 03:28:45;;;;;;;;;;;;;;;24.81;58.04;98163.06;2067371;28;19929;-47
2022/05/25 03:29:46;;;;;;;;;;;;;;;24.79;58.12;98163.31;2066923;28;19925;-48
2022/05/25 03:30:47;;;;;;;;;;;;;;;24.78;58.04;98161.69;2069062;28;19925;-48
2022/05/25 03:31:48;;;;;;;;;;;;;;;24.77;58.10;98157.34;2066246;28;19940;-49
2022/05/25 03:32:51;;;;;;;;;;;;;;;24.75;58.29;98157.56;2067587;28;20024;-47
2022/05/25 03:33:52;;;;;;;;;;;;;;;24.72;58.52;98168.94;2066318;28;19933;-47
2022/05/25 03:34:53;;;;;;;;;;;;;;;24.73;58.38;98170.56;2069075;28;20032;-50
2022/05/25 03:35:55;;;;;;;;;;;;;;;24.74;58.16;98169.50;2066366;28;19945;-47
2022/05/25 03:36:56;;;;;;;;;;;;;;;24.73;58.22;98170.56;2068659;28;20060;-48
2022/05/25 03:37:58;;;;;;;;;;;;;;;24.73;58.26;98178.69;2068840;28;19952;-48
2022/05/25 03:39:00;;;;;;;;;;;;;;;24.74;58.43;98183.06;2065650;28;19940;-48
2022/05/25 03:40:00;;;;;;;;;;;;;;;24.77;58.22;98183.59;2068777;28;20387;-48
2022/05/25 03:41:02;;;;;;;;;;;;;;;24.75;58.15;98190.13;2068429;28;19932;-49
2022/05/25 03:42:06;;;;;;;;;;;;;;;24.73;58.23;98186.84;2066479;28;19955;-48
2022/05/25 03:43:08;;;;;;;;;;;;;;;24.74;58.29;98184.97;2069553;28;19939;-48
2022/05/25 03:44:11;;;;;;;;;;;;;;;24.75;58.06;98192.84;2064519;28;21021;-47
2022/05/25 03:45:13;;;;;;;;;;;;;;;24.72;58.22;98187.09;2067600;28;19937;-49
2022/05/25 03:46:14;;;;;;;;;;;;;;;24.72;58.33;98193.34;2068498;28;19925;-48
2022/05/25 03:47:16;;;;;;;;;;;;;;;24.73;58.10;98189.56;2067846;28;19991;-48
2022/05/25 03:48:19;;;;;;;;;;;;;;;24.75;58.14;98195.53;2058903;28;19929;-49
2022/05/25 03:49:20;;;;;;;;;;;;;;;24.75;58.27;98192.84;2058502;28;20008;-48
2022/05/25 03:50:23;;;;;;;;;;;;;;;24.77;58.35;98202.59;2069624;28;20380;-47
2022/05/25 03:51:24;;;;;;;;;;;;;;;24.77;58.27;98198.00;2067376;28;20403;-47
2022/05/25 03:52:25;;;;;;;;;;;;;;;24.77;58.35;98210.72;2068557;28;20008;-48
2022/05/25 03:53:27;;;;;;;;;;;;;;;24.77;58.15;98202.59;2068236;28;19925;-50
2022/05/25 03:54:28;;;;;;;;;;;;;;;24.76;58.12;98209.91;2071049;28;19929;-47
2022/05/25 03:55:29;;;;;;;;;;;;;;;24.75;58.19;98214.53;2065997;28;19964;-48
2022/05/25 03:56:30;;;;;;;;;;;;;;;24.75;58.12;98203.69;2065467;28;20375;-48
2022/05/25 03:57:31;;;;;;;;;;;;;;;24.75;58.12;98205.56;2068501;28;21597;-48
2022/05/25 03:58:32;;;;;;;;;;;;;;;24.74;58.23;98214.81;2066494;28;19940;-49
2022/05/25 03:59:33;;;;;;;;;;;;;;;24.72;58.40;98209.63;2066745;28;20847;-47
2022/05/25 04:00:34;;;;;;;;;;;;;;;24.72;58.44;98212.31;2070178;28;19969;-48
2022/05/25 04:01:36;;;;;;;;;;;;;;;24.74;58.15;98209.38;2071238;28;19929;-47
2022/05/25 04:02:37;;;;;;;;;;;;;;;24.71;58.19;98213.41;2068123;28;22108;-48
2022/05/25 04:03:40;;;;;;;;;;;;;;;24.73;58.12;98213.97;2072098;28;19929;-48
2022/05/25 04:04:40;;;;;;;;;;;;;;;24.74;58.33;98221.03;2070781;28;19969;-47
2022/05/25 04:05:42;;;;;;;;;;;;;;;24.74;58.25;98221.03;2073150;28;19929;-49
2022/05/25 04:06:43;;;;;;;;;;;;;;;24.74;58.10;98215.63;2070053;28;19926;-48
2022/05/25 04:07:45;;;;;;;;;;;;;;;24.75;58.07;98222.66;2068389;28;19940;-47
2022/05/25 04:08:46;;;;;;;;;;;;;;;24.74;58.08;98231.06;2066548;28;19925;-47
2022/05/25 04:09:47;;;;;;;;;;;;;;;24.73;58.31;98235.66;2068194;28;20032;-47
2022/05/25 04:10:48;;;;;;;;;;;;;;;24.75;58.05;98238.13;2069680;28;20284;-50
2022/05/25 04:11:50;;;;;;;;;;;;;;;24.74;58.08;98231.88;2068917;28;20033;-48
2022/05/25 04:12:51;;;;;;;;;;;;;;;24.73;58.23;98237.56;2067626;28;20029;-48
2022/05/25 04:13:52;;;;;;;;;;;;;;;24.73;58.28;98235.66;2071556;28;20634;-47
2022/05/25 04:14:54;;;;;;;;;;;;;;;24.74;58.48;98240.03;2069354;28;19976;-46
2022/05/25 04:15:55;;;;;;;;;;;;;;;24.73;57.99;98241.06;2070267;28;20581;-48
2022/05/25 04:16:56;;;;;;;;;;;;;;;24.72;58.16;98234.03;2064712;28;19925;-50
2022/05/25 04:17:57;;;;;;;;;;;;;;;24.74;58.49;98233.78;2066404;28;20434;-48
2022/05/25 04:18:59;;;;;;;;;;;;;;;24.69;58.34;98231.81;2069018;28;19965;-47
2022/05/25 04:20:01;;;;;;;;;;;;;;;24.71;58.39;98240.53;2071339;28;20604;-47
2022/05/25 04:21:02;;;;;;;;;;;;;;;24.72;58.19;98244.88;2067613;28;19932;-48
2022/05/25 04:22:04;;;;;;;;;;;;;;;24.72;58.17;98234.03;2067376;28;20420;-47
2022/05/25 04:23:08;;;;;;;;;;;;;;;24.73;58.30;98240.25;2068374;28;19925;-47
2022/05/25 04:24:12;;;;;;;;;;;;;;;24.73;58.21;98245.69;2067414;28;19988;-47
2022/05/25 04:25:14;;;;;;;;;;;;;;;24.72;58.12;98238.63;2071043;28;19936;-47
2022/05/25 04:26:15;;;;;;;;;;;;;;;24.72;58.23;98236.72;2071461;28;19933;-47
2022/05/25 04:27:16;;;;;;;;;;;;;;;24.71;58.40;98235.09;2065025;28;19940;-48
2022/05/25 04:28:18;;;;;;;;;;;;;;;24.72;58.39;98244.88;2073629;28;19973;-48
2022/05/25 04:29:18;;;;;;;;;;;;;;;24.72;58.26;98241.34;2067303;28;19929;-48
2022/05/25 04:30:21;;;;;;;;;;;;;;;24.72;58.07;98244.88;2067780;28;19939;-49
2022/05/25 04:31:21;;;;;;;;;;;;;;;24.71;58.17;98235.09;2067634;28;19933;-49
2022/05/25 04:32:23;;;;;;;;;;;;;;;24.71;58.31;98235.09;2069899;28;20036;-47
2022/05/25 04:33:27;;;;;;;;;;;;;;;24.71;58.39;98236.97;2070486;28;19924;-47
2022/05/25 04:34:30;;;;;;;;;;;;;;;24.71;58.16;98237.81;2070417;28;19936;-47
2022/05/25 04:35:30;;;;;;;;;;;;;;;24.72;58.26;98242.16;2069136;28;19972;-47
2022/05/25 04:36:32;;;;;;;;;;;;;;;24.71;58.26;98236.97;2066128;28;19933;-47
2022/05/25 04:37:52;;;;;;;;;;;;;;;24.71;58.30;98245.97;2070238;28;19961;-48
2022/05/25 04:38:54;;;;;;;;;;;;;;;24.70;58.32;98241.59;2068009;28;19940;-49
2022/05/25 04:39:54;;;;;;;;;;;;;;;24.70;58.35;98255.16;2066409;28;19982;-48
2022/05/25 04:40:56;;;;;;;;;;;;;;;24.70;58.09;98255.16;2070703;28;20496;-47
2022/05/25 04:41:58;;;;;;;;;;;;;;;24.72;58.30;98260.34;2068834;28;19925;-48
2022/05/25 04:43:01;;;;;;;;;;;;;;;24.70;58.21;98263.28;2066233;28;20583;-49
2022/05/25 04:44:03;;;;;;;;;;;;;;;24.71;58.23;98264.09;2071605;28;19929;-48
2022/05/25 04:45:06;;;;;;;;;;;;;;;24.71;58.19;98267.66;2067242;28;19952;-47
2022/05/25 04:46:08;;;;;;;;;;;;;;;24.71;58.06;98267.66;2069001;28;19933;-50
2022/05/25 04:47:09;;;;;;;;;;;;;;;24.70;58.19;98262.47;2067682;28;19925;-47
2022/05/25 04:48:12;;;;;;;;;;;;;;;24.70;58.21;98267.88;2069715;28;19950;-50
2022/05/25 04:49:13;;;;;;;;;;;;;;;24.69;58.54;98260.84;2067720;28;20417;-47
2022/05/25 04:50:17;;;;;;;;;;;;;;;24.70;58.36;98268.72;2066859;28;19935;-47
2022/05/25 04:51:17;;;;;;;;;;;;;;;24.69;58.21;98258.94;2071394;28;19979;-46
2022/05/25 04:52:19;;;;;;;;;;;;;;;24.69;58.23;98261.66;2069088;28;20469;-47
2022/05/25 04:53:22;;;;;;;;;;;;;;;24.69;58.04;98260.84;2068461;28;20415;-47
2022/05/25 04:54:22;;;;;;;;;;;;;;;24.69;58.25;98261.66;2069638;28;19964;-47
2022/05/25 04:58:02;;;;;;;;;;;;;;;24.67;58.28;98258.38;2072105;28;19925;-51
2022/05/25 04:59:03;;;;;;;;;;;;;;;24.67;58.10;98268.41;2072973;28;19933;-48
2022/05/25 05:00:05;;;;;;;;;;;;;;;24.68;58.16;98260.03;2070064;28;19929;-48
2022/05/25 05:01:08;;;;;;;;;;;;;;;24.69;58.11;98272.50;2067121;28;20394;-48
2022/05/25 05:02:08;;;;;;;;;;;;;;;24.66;58.13;98264.88;2072287;28;20472;-47
2022/05/25 05:03:10;;;;;;;;;;;;;;;24.67;58.26;98269.22;2068982;28;19933;-47
2022/05/25 05:04:10;;;;;;;;;;;;;;;24.68;58.12;98259.19;2069366;28;19936;-48
2022/05/25 05:05:14;;;;;;;;;;;;;;;24.67;58.29;98269.22;2068173;28;20490;-52
2022/05/25 05:06:17;;;;;;;;;;;;;;;24.68;58.25;98270.88;2068842;28;19933;-49
2022/05/25 05:07:19;;;;;;;;;;;;;;;24.67;58.04;98265.69;2069830;28;20715;-48
2022/05/25 05:08:20;;;;;;;;;;;;;;;24.66;58.11;98262.16;2070702;28;20295;-49
2022/05/25 05:09:21;;;;;;;;;;;;;;;24.66;58.17;98267.59;2070237;28;20032;-48
2022/05/25 05:10:22;;;;;;;;;;;;;;;24.66;58.12;98264.88;2069944;28;20459;-48
2022/05/25 05:11:23;;;;;;;;;;;;;;;24.67;58.13;98268.41;2071128;28;19933;-47
2022/05/25 05:12:24;;;;;;;;;;;;;;;24.64;58.10;98267.00;2071503;28;20387;-47
2022/05/25 05:13:25;;;;;;;;;;;;;;;24.65;58.27;98265.94;2074227;28;19929;-48
2022/05/25 05:14:26;;;;;;;;;;;;;;;24.67;58.11;98268.41;2067812;28;20974;-47
2022/05/25 05:15:28;;;;;;;;;;;;;;;24.65;58.30;98268.63;2071079;28;19929;-48
2022/05/25 05:16:29;;;;;;;;;;;;;;;24.66;58.33;98270.28;2073327;28;19926;-48
2022/05/25 05:17:30;;;;;;;;;;;;;;;24.67;58.19;98273.81;2069980;28;19925;-51
2022/05/25 05:18:31;;;;;;;;;;;;;;;24.67;58.34;98276.53;2068533;28;19929;-51
2022/05/25 05:19:32;;;;;;;;;;;;;;;24.66;58.19;98278.44;2072455;28;19940;-47
2022/05/25 05:20:34;;;;;;;;;;;;;;;24.65;58.13;98282.19;2073150;28;19931;-48
2022/05/25 05:21:35;;;;;;;;;;;;;;;24.66;58.45;98280.31;2071047;28;19929;-48
2022/05/25 05:22:37;;;;;;;;;;;;;;;24.66;58.03;98277.63;2069845;28;19951;-47
2022/05/25 05:23:39;;;;;;;;;;;;;;;24.66;57.99;98278.44;2070794;28;19926;-48
2022/05/25 05:24:41;;;;;;;;;;;;;;;24.66;58.11;98275.72;2068894;28;19976;-47
2022/05/25 05:25:41;;;;;;;;;;;;;;;24.65;58.18;98271.34;2070964;28;19974;-48
2022/05/25 05:26:43;;;;;;;;;;;;;;;24.65;58.06;98273.25;2068529;28;20770;-48
2022/05/25 05:27:45;;;;;;;;;;;;;;;24.65;58.25;98265.94;2072510;28;19932;-48
2022/05/25 05:28:46;;;;;;;;;;;;;;;24.64;58.28;98272.44;2069014;28;20546;-48
2022/05/25 05:29:47;;;;;;;;;;;;;;;24.65;58.16;98267.81;2070542;28;19925;-50
2022/05/25 05:30:49;;;;;;;;;;;;;;;24.65;58.10;98267.81;2070013;28;20474;-48
2022/05/25 05:31:51;;;;;;;;;;;;;;;24.64;58.31;98269.72;2069424;28;20401;-47
2022/05/25 05:32:51;;;;;;;;;;;;;;;24.65;58.33;98275.97;2068543;28;19973;-48
2022/05/25 05:33:53;;;;;;;;;;;;;;;24.65;58.37;98265.94;2069357;28;21012;-47
2022/05/25 05:34:54;;;;;;;;;;;;;;;24.65;58.23;98271.34;2065640;28;20388;-47
2022/05/25 05:36:04;;;;;;;;;;;;;;;24.64;58.03;98269.72;2069030;28;19941;-48
2022/05/25 05:37:11;;;;;;;;;;;;;;;24.63;58.04;98273.50;2071215;28;19929;-48
2022/05/25 05:38:12;;;;;;;;;;;;;;;24.63;58.17;98273.50;2072663;28;19932;-52